createdAt,value
2022-09-23T00:00:37.542Z,12.11
2022-09-23T00:03:04.477Z,12.10
2022-09-23T00:05:31.315Z,11.91
2022-09-23T00:07:58.322Z,11.87
2022-09-23T00:10:27.523Z,12.02
2022-09-23T00:12:54.938Z,11.94
2022-09-23T00:15:21.720Z,11.77
2022-09-23T00:17:48.192Z,11.96
2022-09-23T00:20:14.674Z,12.03
2022-09-23T00:22:41.142Z,12.09
2022-09-23T00:25:09.379Z,12.03
2022-09-23T00:27:38.075Z,12.09
2022-09-23T00:30:07.016Z,12.10
2022-09-23T00:32:34.192Z,12.11
2022-09-23T00:35:01.125Z,11.99
2022-09-23T00:37:31.168Z,12.02
2022-09-23T00:39:57.794Z,11.83
2022-09-23T00:42:24.646Z,11.70
2022-09-23T00:44:58.950Z,11.85
2022-09-23T00:47:47.453Z,11.95
2022-09-23T00:50:17.294Z,11.97
2022-09-23T00:52:44.171Z,11.81
2022-09-23T00:55:15.601Z,11.68
2022-09-23T00:57:44.511Z,11.58
2022-09-23T01:00:11.469Z,11.46
2022-09-23T01:02:38.216Z,11.28
2022-09-23T01:05:06.577Z,11.26
2022-09-23T01:07:33.643Z,11.20
2022-09-23T01:10:00.959Z,11.24
2022-09-23T01:12:44.883Z,11.21
2022-09-23T01:15:20.269Z,11.21
2022-09-23T01:18:09.791Z,11.30
2022-09-23T01:20:48.486Z,11.50
2022-09-23T01:23:37.957Z,11.56
2022-09-23T01:26:46.664Z,11.50
2022-09-23T01:29:25.263Z,11.35
2022-09-23T01:32:07.314Z,11.33
2022-09-23T01:34:37.594Z,11.36
2022-09-23T01:37:10.157Z,11.52
2022-09-23T01:39:42.140Z,11.55
2022-09-23T01:42:18.694Z,11.69
2022-09-23T01:45:01.946Z,11.80
2022-09-23T01:47:36.034Z,11.59
2022-09-23T01:50:05.680Z,11.50
2022-09-23T01:52:39.201Z,11.29
2022-09-23T01:55:10.928Z,11.43
2022-09-23T01:57:47.106Z,11.59
2022-09-23T02:00:18.551Z,11.66
2022-09-23T02:02:52.382Z,11.69
2022-09-23T02:05:22.240Z,11.74
2022-09-23T02:07:58.887Z,11.78
2022-09-23T02:10:36.221Z,11.59
2022-09-23T02:13:08.756Z,11.61
2022-09-23T02:15:38.433Z,11.45
2022-09-23T02:18:34.355Z,11.49
2022-09-23T02:21:05.596Z,11.52
2022-09-23T02:23:35.717Z,11.55
2022-09-23T02:26:05.140Z,11.55
2022-09-23T02:28:43.733Z,11.43
2022-09-23T02:31:16.473Z,11.31
2022-09-23T02:33:55.656Z,11.34
2022-09-23T02:36:29.598Z,11.12
2022-09-23T02:38:59.302Z,11.06
2022-09-23T02:41:55.692Z,11.24
2022-09-23T02:44:22.698Z,11.25
2022-09-23T02:46:49.459Z,11.31
2022-09-23T02:49:23.016Z,11.20
2022-09-23T02:51:49.813Z,11.24
2022-09-23T02:54:19.149Z,11.41
2022-09-23T02:56:48.254Z,11.34
2022-09-23T02:59:14.899Z,11.35
2022-09-23T03:01:44.393Z,11.27
2022-09-23T03:04:29.691Z,11.03
2022-09-23T03:07:06.364Z,10.83
2022-09-23T03:09:41.702Z,10.69
2022-09-23T03:12:39.248Z,10.41
2022-09-23T03:15:19.393Z,10.33
2022-09-23T03:18:01.686Z,10.40
2022-09-23T03:20:43.726Z,10.65
2022-09-23T03:23:12.468Z,10.94
2022-09-23T03:25:40.451Z,11.04
2022-09-23T03:28:07.390Z,10.98
2022-09-23T03:30:36.778Z,10.96
2022-09-23T03:33:08.505Z,10.96
2022-09-23T03:35:37.240Z,10.77
2022-09-23T03:38:10.067Z,10.88
2022-09-23T03:40:40.586Z,11.04
2022-09-23T03:43:07.209Z,10.97
2022-09-23T03:45:34.518Z,10.89
2022-09-23T03:48:03.782Z,10.99
2022-09-23T03:50:30.348Z,11.03
2022-09-23T03:52:56.745Z,11.09
2022-09-23T03:55:23.201Z,10.96
2022-09-23T03:57:49.644Z,10.90
2022-09-23T04:00:16.856Z,11.00
2022-09-23T04:02:43.638Z,10.76
2022-09-23T04:05:11.410Z,10.71
2022-09-23T04:07:37.859Z,10.77
2022-09-23T04:10:05.562Z,10.75
2022-09-23T04:12:51.667Z,10.78
2022-09-23T04:15:18.202Z,10.80
2022-09-23T04:17:44.667Z,10.77
2022-09-23T04:20:12.147Z,10.85
2022-09-23T04:22:38.623Z,10.97
2022-09-23T04:25:05.523Z,10.96
2022-09-23T04:27:36.858Z,10.83
2022-09-23T04:30:04.548Z,10.88
2022-09-23T04:32:31.007Z,10.92
2022-09-23T04:34:57.480Z,11.00
2022-09-23T04:37:23.973Z,11.00
2022-09-23T04:39:50.459Z,10.98
2022-09-23T04:42:17.013Z,10.91
2022-09-23T04:44:43.468Z,10.92
2022-09-23T04:47:11.332Z,11.00
2022-09-23T04:49:37.779Z,10.93
2022-09-23T04:52:04.450Z,10.95
2022-09-23T04:54:31.088Z,10.80
2022-09-23T04:56:57.759Z,10.65
2022-09-23T04:59:24.265Z,10.52
2022-09-23T05:01:50.786Z,10.49
2022-09-23T05:04:17.613Z,10.39
2022-09-23T05:06:44.092Z,10.38
2022-09-23T05:09:16.445Z,10.32
2022-09-23T05:11:43.340Z,10.32
2022-09-23T05:14:09.818Z,10.36
2022-09-23T05:16:36.435Z,10.37
2022-09-23T05:19:03.092Z,10.42
2022-09-23T05:21:29.621Z,10.44
2022-09-23T05:23:57.160Z,10.78
2022-09-23T05:26:25.011Z,10.90
2022-09-23T05:28:51.789Z,11.05
2022-09-23T05:31:20.848Z,10.95
2022-09-23T05:33:49.418Z,10.98
2022-09-23T05:36:15.955Z,11.01
2022-09-23T05:38:42.585Z,11.07
2022-09-23T05:41:11.772Z,11.06
2022-09-23T05:43:38.470Z,11.14
2022-09-23T05:46:11.054Z,11.21
2022-09-23T05:48:38.361Z,11.11
2022-09-23T05:51:06.395Z,11.16
2022-09-23T05:53:32.835Z,11.36
2022-09-23T05:55:59.320Z,11.44
2022-09-23T05:58:25.840Z,11.63
2022-09-23T06:00:52.289Z,11.78
2022-09-23T06:03:20.247Z,11.74
2022-09-23T06:05:47.306Z,11.70
2022-09-23T06:08:14.290Z,11.69
2022-09-23T06:10:43.028Z,11.70
2022-09-23T06:13:09.797Z,11.75
2022-09-23T06:15:36.576Z,11.83
2022-09-23T06:18:03.741Z,11.96
2022-09-23T06:20:30.207Z,11.93
2022-09-23T06:23:05.168Z,12.09
2022-09-23T06:25:34.003Z,12.05
2022-09-23T06:28:00.575Z,12.22
2022-09-23T06:30:27.312Z,12.52
2022-09-23T06:32:55.460Z,12.70
2022-09-23T06:35:27.562Z,12.83
2022-09-23T06:37:54.786Z,12.99
2022-09-23T06:40:22.123Z,13.05
2022-09-23T06:42:52.261Z,12.99
2022-09-23T06:45:18.915Z,13.18
2022-09-23T06:47:45.381Z,13.38
2022-09-23T06:50:12.004Z,13.55
2022-09-23T06:52:39.261Z,13.62
2022-09-23T06:55:06.560Z,13.67
2022-09-23T06:57:34.118Z,13.72
2022-09-23T07:00:00.701Z,13.92
2022-09-23T07:02:28.065Z,14.09
2022-09-23T07:04:54.723Z,14.10
2022-09-23T07:07:21.165Z,14.11
2022-09-23T07:09:47.708Z,14.22
2022-09-23T07:12:14.139Z,14.05
2022-09-23T07:14:40.613Z,14.07
2022-09-23T07:17:07.062Z,14.04
2022-09-23T07:19:33.523Z,14.15
2022-09-23T07:21:59.982Z,14.38
2022-09-23T07:24:26.465Z,14.54
2022-09-23T07:26:52.923Z,14.76
2022-09-23T07:29:19.442Z,14.84
2022-09-23T07:31:45.990Z,14.60
2022-09-23T07:34:12.655Z,14.67
2022-09-23T07:36:39.786Z,14.58
2022-09-23T07:39:08.439Z,14.66
2022-09-23T07:41:35.003Z,14.90
2022-09-23T07:44:01.723Z,15.14
2022-09-23T07:46:31.023Z,15.48
2022-09-23T07:48:58.152Z,15.71
2022-09-23T07:51:30.805Z,15.88
2022-09-23T07:53:59.909Z,16.13
2022-09-23T07:56:28.663Z,16.24
2022-09-23T07:58:55.485Z,16.52
2022-09-23T08:01:21.955Z,16.81
2022-09-23T08:03:48.462Z,16.93
2022-09-23T08:06:14.922Z,17.08
2022-09-23T08:08:41.534Z,17.21
2022-09-23T08:11:09.547Z,17.54
2022-09-23T08:13:36.263Z,17.63
2022-09-23T08:16:03.057Z,17.79
2022-09-23T08:18:29.658Z,18.10
2022-09-23T08:20:56.129Z,18.08
2022-09-23T08:23:22.583Z,17.98
2022-09-23T08:25:49.033Z,17.97
2022-09-23T08:28:16.339Z,18.08
2022-09-23T08:30:44.130Z,18.12
2022-09-23T08:33:14.229Z,18.01
2022-09-23T08:35:41.222Z,17.94
2022-09-23T08:38:07.943Z,17.96
2022-09-23T08:40:39.806Z,18.00
2022-09-23T08:43:07.727Z,17.66
2022-09-23T08:45:35.614Z,17.57
2022-09-23T08:48:10.765Z,17.60
2022-09-23T08:50:42.142Z,17.59
2022-09-23T08:53:23.908Z,17.49
2022-09-23T08:55:51.840Z,17.43
2022-09-23T08:58:36.987Z,17.45
2022-09-23T09:01:26.618Z,17.41
2022-09-23T09:03:58.431Z,17.44
2022-09-23T09:06:52.517Z,17.31
2022-09-23T09:09:19.787Z,17.20
2022-09-23T09:11:48.757Z,17.24
2022-09-23T09:14:23.668Z,17.38
2022-09-23T09:17:08.627Z,17.12
2022-09-23T09:19:55.844Z,17.09
2022-09-23T09:22:28.339Z,16.93
2022-09-23T09:25:01.484Z,16.73
2022-09-23T09:27:27.919Z,16.82
2022-09-23T09:29:54.552Z,16.83
2022-09-23T09:32:36.329Z,16.93
2022-09-23T09:35:11.242Z,16.99
2022-09-23T09:37:43.370Z,17.03
2022-09-23T09:40:14.067Z,17.11
2022-09-23T09:42:41.653Z,17.12
2022-09-23T09:45:21.395Z,17.08
2022-09-23T09:47:56.814Z,16.96
2022-09-23T09:50:55.657Z,17.09
2022-09-23T09:53:27.693Z,17.17
2022-09-23T09:56:10.042Z,17.30
2022-09-23T09:58:49.614Z,17.14
2022-09-23T10:01:24.390Z,17.05
2022-09-23T10:03:56.922Z,17.01
2022-09-23T10:06:30.790Z,17.14
2022-09-23T10:09:16.249Z,17.25
2022-09-23T10:12:02.102Z,17.33
2022-09-23T10:14:28.663Z,17.27
2022-09-23T10:17:03.420Z,17.33
2022-09-23T10:19:30.116Z,17.35
2022-09-23T10:21:58.735Z,17.35
2022-09-23T10:24:33.557Z,17.36
2022-09-23T10:27:03.588Z,17.30
2022-09-23T10:29:32.944Z,17.21
2022-09-23T10:32:20.691Z,17.33
2022-09-23T10:34:51.428Z,17.26
2022-09-23T10:37:40.321Z,17.13
2022-09-23T10:40:37.716Z,17.18
2022-09-23T10:43:07.922Z,17.40
2022-09-23T10:45:41.206Z,17.47
2022-09-23T10:48:21.325Z,17.61
2022-09-23T10:50:49.451Z,17.75
2022-09-23T10:53:42.239Z,17.68
2022-09-23T10:57:01.326Z,17.70
2022-09-23T10:59:49.601Z,17.70
2022-09-23T11:02:50.979Z,17.73
2022-09-23T11:05:54.519Z,17.69
2022-09-23T11:08:39.138Z,17.87
2022-09-23T11:11:17.632Z,17.91
2022-09-23T11:14:03.802Z,17.84
2022-09-23T11:16:55.423Z,17.99
2022-09-23T11:19:54.776Z,18.09
2022-09-23T11:22:30.245Z,18.30
2022-09-23T11:25:29.140Z,18.10
2022-09-23T11:28:14.409Z,18.16
2022-09-23T11:31:22.111Z,18.27
2022-09-23T11:33:59.707Z,18.39
2022-09-23T11:36:32.708Z,18.26
2022-09-23T11:39:01.450Z,18.48
2022-09-23T11:41:30.715Z,18.57
2022-09-23T11:44:12.484Z,18.25
2022-09-23T11:46:45.232Z,18.14
2022-09-23T11:49:15.570Z,18.29
2022-09-23T11:52:21.750Z,18.65
2022-09-23T11:55:15.965Z,18.81
2022-09-23T11:57:51.451Z,18.91
2022-09-23T12:00:25.414Z,19.00
2022-09-23T12:03:06.283Z,19.02
2022-09-23T12:05:38.294Z,19.07
2022-09-23T12:08:17.586Z,18.98
2022-09-23T12:10:43.994Z,19.19
2022-09-23T12:13:11.963Z,19.10
2022-09-23T12:16:00.583Z,19.03
2022-09-23T12:18:38.635Z,18.97
2022-09-23T12:21:33.070Z,19.07
2022-09-23T12:24:20.283Z,19.25
2022-09-23T12:26:51.086Z,19.18
2022-09-23T12:29:17.857Z,19.19
2022-09-23T12:31:46.755Z,19.31
2022-09-23T12:34:22.598Z,19.72
2022-09-23T12:36:50.351Z,19.73
2022-09-23T12:39:21.734Z,19.83
2022-09-23T12:41:49.521Z,20.27
2022-09-23T12:44:52.849Z,20.63
2022-09-23T12:47:19.389Z,20.43
2022-09-23T12:49:45.848Z,20.63
2022-09-23T12:52:18.363Z,20.81
2022-09-23T12:54:49.591Z,20.83
2022-09-23T12:57:40.821Z,21.11
2022-09-23T13:00:07.167Z,21.55
2022-09-23T13:02:36.506Z,21.56
2022-09-23T13:05:09.212Z,21.88
2022-09-23T13:07:42.603Z,21.94
2022-09-23T13:10:16.660Z,21.13
2022-09-23T13:12:43.707Z,20.87
2022-09-23T13:15:17.851Z,21.12
2022-09-23T13:17:44.370Z,21.37
2022-09-23T13:20:19.984Z,21.54
2022-09-23T13:22:49.229Z,21.47
2022-09-23T13:25:24.125Z,21.64
2022-09-23T13:27:54.094Z,21.89
2022-09-23T13:30:26.117Z,21.77
2022-09-23T13:33:11.058Z,21.89
2022-09-23T13:35:40.799Z,21.77
2022-09-23T13:38:11.840Z,21.18
2022-09-23T13:40:38.791Z,21.46
2022-09-23T13:43:09.242Z,21.51
2022-09-23T13:45:40.863Z,21.55
2022-09-23T13:48:12.179Z,21.69
2022-09-23T13:50:39.615Z,22.04
2022-09-23T13:53:09.065Z,22.18
2022-09-23T13:55:36.639Z,21.98
2022-09-23T13:58:04.672Z,21.76
2022-09-23T14:00:36.525Z,22.12
2022-09-23T14:03:16.178Z,21.65
2022-09-23T14:05:42.994Z,21.45
2022-09-23T14:08:09.561Z,21.43
2022-09-23T14:10:36.075Z,21.29
2022-09-23T14:13:02.560Z,21.28
2022-09-23T14:15:29.033Z,21.36
2022-09-23T14:18:03.090Z,21.56
2022-09-23T14:20:29.563Z,21.48
2022-09-23T14:23:07.071Z,21.59
2022-09-23T14:25:34.282Z,21.67
2022-09-23T14:28:01.052Z,21.52
2022-09-23T14:30:27.708Z,21.45
2022-09-23T14:32:54.173Z,21.13
2022-09-23T14:35:26.310Z,21.27
2022-09-23T14:37:58.376Z,21.11
2022-09-23T14:40:27.276Z,21.13
2022-09-23T14:43:06.764Z,21.09
2022-09-23T14:45:38.771Z,21.07
2022-09-23T14:48:17.143Z,21.19
2022-09-23T14:50:48.531Z,21.04
2022-09-23T14:53:17.951Z,21.36
2022-09-23T14:55:45.491Z,21.36
2022-09-23T14:58:16.417Z,21.28
2022-09-23T15:00:57.135Z,21.24
2022-09-23T15:03:23.821Z,21.28
2022-09-23T15:05:51.898Z,21.06
2022-09-23T15:08:23.277Z,21.23
2022-09-23T15:10:50.129Z,21.14
2022-09-23T15:13:27.496Z,21.07
2022-09-23T15:15:54.668Z,20.80
2022-09-23T15:18:23.296Z,20.76
2022-09-23T15:20:50.907Z,20.78
2022-09-23T15:23:34.124Z,20.94
2022-09-23T15:26:10.113Z,21.01
2022-09-23T15:28:36.600Z,21.02
2022-09-23T15:31:03.250Z,21.18
2022-09-23T15:33:29.703Z,21.19
2022-09-23T15:35:56.207Z,20.99
2022-09-23T15:38:22.834Z,20.82
2022-09-23T15:40:49.372Z,20.63
2022-09-23T15:43:20.763Z,20.79
2022-09-23T15:45:59.592Z,20.93
2022-09-23T15:48:29.254Z,20.97
2022-09-23T15:50:55.738Z,20.94
2022-09-23T15:53:25.122Z,20.99
2022-09-23T15:55:51.872Z,21.10
2022-09-23T15:58:22.553Z,21.09
2022-09-23T16:00:54.952Z,21.18
2022-09-23T16:03:24.666Z,21.06
2022-09-23T16:05:51.872Z,21.10
2022-09-23T16:08:18.344Z,21.12
2022-09-23T16:10:44.904Z,21.03
2022-09-23T16:13:13.635Z,20.75
2022-09-23T16:15:42.585Z,20.64
2022-09-23T16:18:10.832Z,20.36
2022-09-23T16:20:40.004Z,20.52
2022-09-23T16:23:18.170Z,20.42
2022-09-23T16:25:44.701Z,20.52
2022-09-23T16:28:11.160Z,20.49
2022-09-23T16:30:37.584Z,20.49
2022-09-23T16:33:04.057Z,20.45
2022-09-23T16:35:31.543Z,20.39
2022-09-23T16:37:58.051Z,20.33
2022-09-23T16:40:25.069Z,20.03
2022-09-23T16:42:52.689Z,19.80
2022-09-23T16:45:20.516Z,19.93
2022-09-23T16:47:48.108Z,19.81
2022-09-23T16:50:19.101Z,19.73
2022-09-23T16:52:45.604Z,19.66
2022-09-23T16:55:13.400Z,19.71
2022-09-23T16:57:40.666Z,19.67
2022-09-23T17:00:11.518Z,19.54
2022-09-23T17:02:38.063Z,19.33
2022-09-23T17:05:04.968Z,19.28
2022-09-23T17:07:31.464Z,19.22
2022-09-23T17:09:57.984Z,19.18
2022-09-23T17:12:30.441Z,19.09
2022-09-23T17:14:56.914Z,19.16
2022-09-23T17:17:23.498Z,19.13
2022-09-23T17:19:49.991Z,19.10
2022-09-23T17:22:16.467Z,18.84
2022-09-23T17:24:42.940Z,18.86
2022-09-23T17:27:09.833Z,18.91
2022-09-23T17:29:37.651Z,18.78
2022-09-23T17:32:04.217Z,18.82
2022-09-23T17:34:31.288Z,18.82
2022-09-23T17:36:57.747Z,18.68
2022-09-23T17:39:25.370Z,18.70
2022-09-23T17:41:51.831Z,18.46
2022-09-23T17:44:18.321Z,18.43
2022-09-23T17:46:44.790Z,18.44
2022-09-23T17:49:11.256Z,18.37
2022-09-23T17:51:37.721Z,18.24
2022-09-23T17:54:04.235Z,18.20
2022-09-23T17:56:30.680Z,18.07
2022-09-23T17:59:00.195Z,18.13
2022-09-23T18:01:26.879Z,18.18
2022-09-23T18:03:58.031Z,18.01
2022-09-23T18:06:27.134Z,17.75
2022-09-23T18:08:54.378Z,17.92
2022-09-23T18:11:24.586Z,18.01
2022-09-23T18:13:52.379Z,18.02
2022-09-23T18:16:19.806Z,18.09
2022-09-23T18:18:50.952Z,18.12
2022-09-23T18:21:17.389Z,18.23
2022-09-23T18:23:43.870Z,18.33
2022-09-23T18:26:18.738Z,18.26
2022-09-23T18:28:45.427Z,18.24
2022-09-23T18:31:12.017Z,18.26
2022-09-23T18:33:38.531Z,18.24
2022-09-23T18:36:05.454Z,18.23
2022-09-23T18:38:34.948Z,18.18
2022-09-23T18:41:01.863Z,18.05
2022-09-23T18:43:35.895Z,17.96
2022-09-23T18:46:09.298Z,17.91
2022-09-23T18:48:35.825Z,17.94
2022-09-23T18:51:02.373Z,18.03
2022-09-23T18:53:28.924Z,18.07
2022-09-23T18:55:55.412Z,18.01
2022-09-23T18:58:21.861Z,18.08
2022-09-23T19:00:48.908Z,18.09
2022-09-23T19:03:18.678Z,17.91
2022-09-23T19:05:46.291Z,17.91
2022-09-23T19:08:12.755Z,17.86
2022-09-23T19:10:39.225Z,17.91
2022-09-23T19:13:05.689Z,17.85
2022-09-23T19:15:32.825Z,17.85
2022-09-23T19:17:59.274Z,17.90
2022-09-23T19:20:25.731Z,17.92
2022-09-23T19:22:53.271Z,17.92
2022-09-23T19:25:19.750Z,17.89
2022-09-23T19:27:46.288Z,17.81
2022-09-23T19:30:12.746Z,17.79
2022-09-23T19:32:39.206Z,17.75
2022-09-23T19:35:05.922Z,17.77
2022-09-23T19:37:32.361Z,17.77
2022-09-23T19:39:58.807Z,17.78
2022-09-23T19:42:25.291Z,17.81
2022-09-23T19:44:51.738Z,17.91
2022-09-23T19:47:18.232Z,17.97
2022-09-23T19:49:45.465Z,17.96
2022-09-23T19:52:14.255Z,17.96
2022-09-23T19:54:40.721Z,17.94
2022-09-23T19:57:07.185Z,17.90
2022-09-23T19:59:33.616Z,17.96
2022-09-23T20:02:00.260Z,17.97
2022-09-23T20:04:27.446Z,17.91
2022-09-23T20:06:54.489Z,17.96
2022-09-23T20:09:21.198Z,17.91
2022-09-23T20:11:50.653Z,17.87
2022-09-23T20:14:17.114Z,17.80
2022-09-23T20:16:43.662Z,17.86
2022-09-23T20:19:10.235Z,17.78
2022-09-23T20:21:36.851Z,17.87
2022-09-23T20:24:03.631Z,17.73
2022-09-23T20:26:30.631Z,17.71
2022-09-23T20:28:57.172Z,17.64
2022-09-23T20:31:23.811Z,17.45
2022-09-23T20:33:54.684Z,17.53
2022-09-23T20:36:21.276Z,17.56
2022-09-23T20:38:47.694Z,17.52
2022-09-23T20:41:14.165Z,17.49
2022-09-23T20:43:41.029Z,17.59
2022-09-23T20:46:07.609Z,17.50
2022-09-23T20:48:34.653Z,17.48
2022-09-23T20:51:04.990Z,17.33
2022-09-23T20:53:31.732Z,17.41
2022-09-23T20:55:59.774Z,17.39
2022-09-23T20:58:30.574Z,17.33
2022-09-23T21:01:01.586Z,17.40
2022-09-23T21:03:30.264Z,17.31
2022-09-23T21:05:59.988Z,17.32
2022-09-23T21:08:27.643Z,17.40
2022-09-23T21:10:56.126Z,17.51
2022-09-23T21:13:22.902Z,17.61
2022-09-23T21:15:50.281Z,17.62
2022-09-23T21:18:21.725Z,17.59
2022-09-23T21:20:58.725Z,17.60
2022-09-23T21:23:30.461Z,17.64
2022-09-23T21:26:01.929Z,17.50
2022-09-23T21:28:33.018Z,17.50
2022-09-23T21:31:05.247Z,17.30
2022-09-23T21:33:32.220Z,17.21
2022-09-23T21:35:59.979Z,17.09
2022-09-23T21:38:26.456Z,17.09
2022-09-23T21:41:01.553Z,16.90
2022-09-23T21:43:32.433Z,16.88
2022-09-23T21:46:00.855Z,16.88
2022-09-23T21:48:28.915Z,16.92
2022-09-23T21:50:59.214Z,16.79
2022-09-23T21:53:26.888Z,16.69
2022-09-23T21:55:53.350Z,16.64
2022-09-23T21:58:19.784Z,16.63
2022-09-23T22:00:46.405Z,16.74
2022-09-23T22:03:13.125Z,16.68
2022-09-23T22:05:39.603Z,16.65
2022-09-23T22:08:06.052Z,16.64
2022-09-23T22:10:33.268Z,16.70
2022-09-23T22:12:59.927Z,16.72
2022-09-23T22:15:26.368Z,16.72
2022-09-23T22:17:52.821Z,16.75
2022-09-23T22:20:20.034Z,16.83
2022-09-23T22:22:46.646Z,16.98
2022-09-23T22:25:13.320Z,16.91
2022-09-23T22:27:39.808Z,16.94
2022-09-23T22:30:08.396Z,17.08
2022-09-23T22:32:34.942Z,17.28
2022-09-23T22:35:01.787Z,17.39
2022-09-23T22:37:30.474Z,17.46
2022-09-23T22:39:57.026Z,17.52
2022-09-23T22:42:23.566Z,17.31
2022-09-23T22:44:51.153Z,17.22
2022-09-23T22:47:18.571Z,17.39
2022-09-23T22:49:46.147Z,17.19
2022-09-23T22:52:13.190Z,17.25
2022-09-23T22:54:39.658Z,17.27
2022-09-23T22:57:07.803Z,17.34
2022-09-23T22:59:34.796Z,17.34
2022-09-23T23:02:02.302Z,17.29
2022-09-23T23:04:29.983Z,17.21
2022-09-23T23:06:57.180Z,17.25
2022-09-23T23:09:23.652Z,17.20
2022-09-23T23:11:50.122Z,17.11
2022-09-23T23:14:18.169Z,17.17
2022-09-23T23:16:45.462Z,16.99
2022-09-23T23:19:14.722Z,17.14
2022-09-23T23:21:41.530Z,16.96
2022-09-23T23:24:14.802Z,16.96
2022-09-23T23:26:41.933Z,16.97
2022-09-23T23:29:11.089Z,16.96
2022-09-23T23:31:37.926Z,17.08
2022-09-23T23:34:05.239Z,17.11
2022-09-23T23:36:31.736Z,17.13
2022-09-23T23:38:58.649Z,17.35
2022-09-23T23:41:25.138Z,17.15
2022-09-23T23:43:57.681Z,17.19
2022-09-23T23:46:25.609Z,17.38
2022-09-23T23:48:53.342Z,17.39
2022-09-23T23:51:20.360Z,17.37
2022-09-23T23:53:47.290Z,17.34
2022-09-23T23:56:18.982Z,17.42
2022-09-23T23:58:45.805Z,17.37
